createdAt,value
2017-05-24T00:00:36.712Z,99.04
2017-05-24T00:01:36.780Z,98.85
2017-05-24T00:02:36.798Z,99.04
2017-05-24T00:03:36.846Z,99.13
2017-05-24T00:04:36.884Z,99.04
2017-05-24T00:05:36.917Z,98.47
2017-05-24T00:06:36.949Z,98.66
2017-05-24T00:07:36.971Z,98.47
2017-05-24T00:08:37.016Z,97.99
2017-05-24T00:09:37.048Z,98.85
2017-05-24T00:10:37.082Z,98.85
2017-05-24T00:11:37.117Z,99.04
2017-05-24T00:12:37.146Z,98.66
2017-05-24T00:13:37.179Z,98.47
2017-05-24T00:14:37.214Z,98.85
2017-05-24T00:15:37.257Z,98.37
2017-05-24T00:16:37.286Z,98.08
2017-05-24T00:17:37.323Z,97.89
2017-05-24T00:18:37.350Z,97.71
2017-05-24T00:19:37.380Z,97.42
2017-05-24T00:20:37.398Z,97.61
2017-05-24T00:21:37.453Z,98.18
2017-05-24T00:22:37.485Z,97.99
2017-05-24T00:23:37.521Z,98.08
2017-05-24T00:24:37.552Z,97.61
2017-05-24T00:25:37.575Z,97.61
2017-05-24T00:26:37.604Z,97.71
2017-05-24T00:27:37.657Z,98.27
2017-05-24T00:28:37.680Z,98.61
2017-05-24T00:29:37.727Z,98.13
2017-05-24T00:30:37.747Z,98.13
2017-05-24T00:31:37.787Z,98.08
2017-05-24T00:32:37.819Z,98.03
2017-05-24T00:33:37.852Z,98.51
2017-05-24T00:34:37.892Z,98.7
2017-05-24T00:35:37.920Z,98.8
2017-05-24T00:36:37.952Z,98.32
2017-05-24T00:37:37.990Z,98.61
2017-05-24T00:38:38.078Z,98.8
2017-05-24T00:39:38.051Z,98.51
2017-05-24T00:40:38.097Z,98.61
2017-05-24T00:41:38.122Z,98.51
2017-05-24T00:42:38.146Z,98.13
2017-05-24T00:43:38.187Z,97.56
2017-05-24T00:44:38.224Z,97.56
2017-05-24T00:45:38.250Z,96.98
2017-05-24T00:46:38.270Z,96.98
2017-05-24T00:47:38.321Z,97.56
2017-05-24T00:48:38.350Z,97.66
2017-05-24T00:49:38.387Z,97.37
2017-05-24T00:50:38.419Z,96.89
2017-05-24T00:51:38.450Z,96.61
2017-05-24T00:52:38.485Z,96.51
2017-05-24T00:53:38.524Z,96.32
2017-05-24T00:54:38.554Z,96.89
2017-05-24T00:55:38.586Z,96.98
2017-05-24T00:56:38.624Z,96.51
2017-05-24T00:57:38.657Z,96.7
2017-05-24T00:58:38.689Z,97.46
2017-05-24T00:59:38.718Z,97.08
2017-05-24T01:00:38.754Z,96.61
2017-05-24T01:01:38.786Z,96.41
2017-05-24T01:02:38.822Z,96.8
2017-05-24T01:03:38.857Z,96.41
2017-05-24T01:04:38.885Z,96.37
2017-05-24T01:05:38.916Z,96.27
2017-05-24T01:06:38.945Z,96.7
2017-05-24T01:07:38.985Z,96.32
2017-05-24T01:08:39.015Z,96.41
2017-05-24T01:09:39.050Z,96.89
2017-05-24T01:10:39.072Z,96.8
2017-05-24T01:11:39.119Z,96.7
2017-05-24T01:12:39.150Z,96.51
2017-05-24T01:13:39.181Z,96.17
2017-05-24T01:14:39.223Z,95.7
2017-05-24T01:15:39.273Z,96.08
2017-05-24T01:16:39.291Z,95.79
2017-05-24T01:17:39.321Z,95.84
2017-05-24T01:18:39.418Z,95.75
2017-05-24T01:19:39.382Z,96.03
2017-05-24T01:20:39.419Z,96.41
2017-05-24T01:21:39.456Z,96.32
2017-05-24T01:22:39.480Z,96.7
2017-05-24T01:23:39.515Z,95.65
2017-05-24T01:24:39.555Z,96.41
2017-05-24T01:25:39.583Z,96.51
2017-05-24T01:26:39.621Z,95.94
2017-05-24T01:27:39.633Z,96.13
2017-05-24T01:28:39.681Z,96.7
2017-05-24T01:29:39.727Z,96.13
2017-05-24T01:30:39.746Z,95.94
2017-05-24T01:31:39.778Z,95.94
2017-05-24T01:32:39.813Z,96.41
2017-05-24T01:33:39.849Z,95.84
2017-05-24T01:34:39.886Z,96.32
2017-05-24T01:35:40.262Z,96.41
2017-05-24T01:36:39.955Z,95.84
2017-05-24T01:37:39.976Z,95.94
2017-05-24T01:38:40.014Z,96.13
2017-05-24T01:39:40.012Z,96.32
2017-05-24T01:40:40.057Z,96.22
2017-05-24T01:41:40.106Z,95.94
2017-05-24T01:42:40.134Z,95.27
2017-05-24T01:43:40.178Z,95.56
2017-05-24T01:44:40.217Z,96.03
2017-05-24T01:45:40.245Z,96.13
2017-05-24T01:46:40.279Z,95.37
2017-05-24T01:47:40.319Z,95.27
2017-05-24T01:48:40.355Z,94.74
2017-05-24T01:49:40.394Z,95.08
2017-05-24T01:50:40.412Z,94.98
2017-05-24T01:51:40.429Z,95.03
2017-05-24T01:52:40.478Z,95.03
2017-05-24T01:53:40.523Z,94.74
2017-05-24T01:54:40.536Z,94.17
2017-05-24T01:55:40.576Z,93.7
2017-05-24T01:56:40.606Z,93.51
2017-05-24T01:57:40.630Z,93.31
2017-05-24T01:58:40.678Z,93.41
2017-05-24T01:59:40.716Z,93.31
2017-05-24T02:00:40.726Z,93.02
2017-05-24T02:01:40.778Z,93.22
2017-05-24T02:02:40.790Z,92.93
2017-05-24T02:03:40.822Z,93.6
2017-05-24T02:04:40.875Z,93.31
2017-05-24T02:05:40.914Z,92.83
2017-05-24T02:06:40.925Z,92.46
2017-05-24T02:07:40.974Z,93.55
2017-05-24T02:08:41.009Z,93.46
2017-05-24T02:09:41.019Z,92.97
2017-05-24T02:10:41.075Z,93.26
2017-05-24T02:11:41.115Z,92.5
2017-05-24T02:12:41.134Z,92.69
2017-05-24T02:13:41.178Z,92.97
2017-05-24T02:14:41.206Z,92.83
2017-05-24T02:15:41.234Z,92.79
2017-05-24T02:16:41.272Z,92.12
2017-05-24T02:17:41.306Z,92.6
2017-05-24T02:18:41.315Z,92.88
2017-05-24T02:19:41.355Z,92.69
2017-05-24T02:20:41.410Z,92.41
2017-05-24T02:21:41.431Z,92.69
2017-05-24T02:22:41.483Z,92.69
2017-05-24T02:23:41.486Z,92.6
2017-05-24T02:24:41.517Z,92.6
2017-05-24T02:25:41.570Z,92.88
2017-05-24T02:26:41.605Z,92.79
2017-05-24T02:27:41.630Z,92.79
2017-05-24T02:28:41.686Z,92.02
2017-05-24T02:29:41.714Z,91.83
2017-05-24T02:30:41.740Z,92.02
2017-05-24T02:31:41.782Z,91.45
2017-05-24T02:32:41.804Z,91.45
2017-05-24T02:33:41.840Z,91.36
2017-05-24T02:34:41.876Z,91.26
2017-05-24T02:35:41.902Z,91.26
2017-05-24T02:36:41.945Z,91.45
2017-05-24T02:37:41.968Z,91.16
2017-05-24T02:38:42.001Z,91.45
2017-05-24T02:39:42.043Z,90.97
2017-05-24T02:40:42.074Z,91.45
2017-05-24T02:41:42.100Z,91.64
2017-05-24T02:42:42.141Z,91.07
2017-05-24T02:43:42.173Z,91.26
2017-05-24T02:44:42.208Z,91.16
2017-05-24T02:45:42.239Z,91.74
2017-05-24T02:46:42.275Z,91.83
2017-05-24T02:47:42.289Z,91.83
2017-05-24T02:48:42.344Z,91.55
2017-05-24T02:49:42.376Z,91.16
2017-05-24T02:50:42.413Z,91.26
2017-05-24T02:51:42.443Z,90.78
2017-05-24T02:52:42.469Z,90.59
2017-05-24T02:53:42.502Z,90.59
2017-05-24T02:54:42.559Z,90.78
2017-05-24T02:55:42.571Z,91.36
2017-05-24T02:56:42.589Z,91.45
2017-05-24T02:57:42.642Z,91.26
2017-05-24T02:58:42.683Z,90.97
2017-05-24T02:59:42.711Z,90.97
2017-05-24T03:00:42.747Z,91.16
2017-05-24T03:01:42.772Z,91.36
2017-05-24T03:02:42.799Z,91.26
2017-05-24T03:03:42.832Z,90.5
2017-05-24T03:04:42.878Z,91.26
2017-05-24T03:05:42.901Z,91.74
2017-05-24T03:06:42.941Z,91.45
2017-05-24T03:07:43.003Z,91.26
2017-05-24T03:08:43.005Z,91.16
2017-05-24T03:09:43.035Z,90.97
2017-05-24T03:10:43.156Z,91.26
2017-05-24T03:11:43.112Z,90.88
2017-05-24T03:12:43.135Z,90.31
2017-05-24T03:13:43.157Z,90.31
2017-05-24T03:14:43.205Z,90.31
2017-05-24T03:15:43.492Z,90.59
2017-05-24T03:16:43.253Z,90.59
2017-05-24T03:17:43.304Z,90.4
2017-05-24T03:18:43.346Z,90.21
2017-05-24T03:19:43.352Z,90.31
2017-05-24T03:20:43.405Z,90.31
2017-05-24T03:21:43.443Z,90.21
2017-05-24T03:22:43.456Z,90.02
2017-05-24T03:23:43.501Z,89.54
2017-05-24T03:24:43.534Z,89.35
2017-05-24T03:25:43.544Z,89.83
2017-05-24T03:26:43.601Z,89.54
2017-05-24T03:27:43.662Z,89.92
2017-05-24T03:28:43.652Z,89.64
2017-05-24T03:29:43.698Z,90.11
2017-05-24T03:30:43.730Z,89.54
2017-05-24T03:31:43.751Z,89.73
2017-05-24T03:32:43.758Z,89.83
2017-05-24T03:33:43.839Z,89.45
2017-05-24T03:34:43.885Z,89.92
2017-05-24T03:35:43.898Z,89.73
2017-05-24T03:36:43.935Z,89.64
2017-05-24T03:37:43.957Z,89.73
2017-05-24T03:38:44.065Z,89.25
2017-05-24T03:39:44.035Z,89.25
2017-05-24T03:40:44.053Z,89.64
2017-05-24T03:41:44.102Z,90.25
2017-05-24T03:42:44.130Z,89.78
2017-05-24T03:43:44.164Z,89.39
2017-05-24T03:44:44.198Z,89.39
2017-05-24T03:45:44.240Z,89.68
2017-05-24T03:46:44.301Z,89.59
2017-05-24T03:47:44.294Z,89.39
2017-05-24T03:48:44.330Z,89.01
2017-05-24T03:49:44.363Z,89.11
2017-05-24T03:50:44.381Z,88.54
2017-05-24T03:51:44.437Z,88.25
2017-05-24T03:52:44.454Z,88.92
2017-05-24T03:53:44.506Z,89.59
2017-05-24T03:54:44.536Z,89.87
2017-05-24T03:55:44.557Z,89.59
2017-05-24T03:56:44.625Z,90.06
2017-05-24T03:57:44.639Z,89.78
2017-05-24T03:58:44.651Z,89.64
2017-05-24T03:59:44.695Z,89.78
2017-05-24T04:00:44.731Z,90.31
2017-05-24T04:01:44.743Z,90.11
2017-05-24T04:02:44.809Z,90.16
2017-05-24T04:03:44.833Z,90.11
2017-05-24T04:04:44.863Z,90.16
2017-05-24T04:05:44.899Z,90.35
2017-05-24T04:06:44.931Z,89.87
2017-05-24T04:07:44.957Z,90.35
2017-05-24T04:08:45.016Z,90.16
2017-05-24T04:09:45.028Z,90.4
2017-05-24T04:10:45.046Z,90.31
2017-05-24T04:11:45.101Z,90.21
2017-05-24T04:12:45.132Z,90.31
2017-05-24T04:13:45.154Z,90.25
2017-05-24T04:14:45.195Z,90.21
2017-05-24T04:15:45.210Z,90.06
2017-05-24T04:16:45.260Z,89.78
2017-05-24T04:17:45.297Z,89.83
2017-05-24T04:18:45.330Z,89.59
2017-05-24T04:19:45.354Z,89.59
2017-05-24T04:20:45.393Z,89.49
2017-05-24T04:21:45.431Z,89.39
2017-05-24T04:22:45.445Z,89.68
2017-05-24T04:23:45.497Z,90.06
2017-05-24T04:24:45.538Z,89.68
2017-05-24T04:25:45.553Z,89.59
2017-05-24T04:26:45.594Z,89.3
2017-05-24T04:27:45.639Z,89.59
2017-05-24T04:28:45.641Z,90.16
2017-05-24T04:29:45.695Z,90.16
2017-05-24T04:30:45.726Z,89.68
2017-05-24T04:31:45.760Z,89.68
2017-05-24T04:32:45.794Z,90.25
2017-05-24T04:33:45.837Z,90.35
2017-05-24T04:34:45.844Z,90.64
2017-05-24T04:35:45.895Z,90.35
2017-05-24T04:36:45.911Z,90.35
2017-05-24T04:37:45.943Z,90.92
2017-05-24T04:38:45.995Z,90.64
2017-05-24T04:39:46.028Z,90.83
2017-05-24T04:40:46.053Z,90.31
2017-05-24T04:41:46.099Z,90.35
2017-05-24T04:42:46.125Z,90.25
2017-05-24T04:43:46.161Z,90.21
2017-05-24T04:44:46.195Z,90.25
2017-05-24T04:45:46.229Z,89.97
2017-05-24T04:46:46.256Z,89.97
2017-05-24T04:47:46.296Z,89.78
2017-05-24T04:48:46.331Z,89.11
2017-05-24T04:49:46.356Z,89.3
2017-05-24T04:50:46.452Z,88.92
2017-05-24T04:51:46.422Z,88.82
2017-05-24T04:52:46.455Z,89.11
2017-05-24T04:53:46.497Z,88.15
2017-05-24T04:54:46.527Z,88.15
2017-05-24T04:55:46.558Z,87.87
2017-05-24T04:56:46.575Z,87.39
2017-05-24T04:57:46.632Z,87.48
2017-05-24T04:58:46.658Z,87.58
2017-05-24T04:59:46.692Z,87.01
2017-05-24T05:00:46.712Z,87.48
2017-05-24T05:01:46.739Z,87.39
2017-05-24T05:02:46.784Z,87.58
2017-05-24T05:03:46.830Z,87.58
2017-05-24T05:04:46.853Z,87.58
2017-05-24T05:05:46.899Z,87.58
2017-05-24T05:06:46.915Z,87.96
2017-05-24T05:07:46.938Z,87.29
2017-05-24T05:08:47.045Z,88.15
2017-05-24T05:09:47.029Z,88.15
2017-05-24T05:10:47.054Z,88.54
2017-05-24T05:11:47.098Z,88.54
2017-05-24T05:12:47.137Z,88.25
2017-05-24T05:13:47.159Z,88.54
2017-05-24T05:14:47.282Z,87.96
2017-05-24T05:15:47.271Z,88.06
2017-05-24T05:16:47.319Z,88.06
2017-05-24T05:17:47.291Z,87.39
2017-05-24T05:18:47.338Z,87.87
2017-05-24T05:19:47.355Z,87.58
2017-05-24T05:20:47.393Z,87.87
2017-05-24T05:21:47.422Z,87.29
2017-05-24T05:22:47.458Z,87.68
2017-05-24T05:23:47.498Z,87.68
2017-05-24T05:24:47.525Z,87.72
2017-05-24T05:25:47.655Z,87.53
2017-05-24T05:26:47.581Z,87.58
2017-05-24T05:27:47.625Z,87.48
2017-05-24T05:28:47.659Z,87.53
2017-05-24T05:29:47.699Z,86.96
2017-05-24T05:30:47.894Z,86.96
2017-05-24T05:31:47.763Z,86.96
2017-05-24T05:32:47.794Z,86.86
2017-05-24T05:33:47.833Z,86.43
2017-05-24T05:34:47.847Z,86.19
2017-05-24T05:35:48.062Z,86.1
2017-05-24T05:36:47.961Z,86
2017-05-24T05:37:47.951Z,86.47
2017-05-24T05:38:47.992Z,86.29
2017-05-24T05:39:48.025Z,86.19
2017-05-24T05:40:48.059Z,86
2017-05-24T05:41:48.098Z,86.1
2017-05-24T05:42:48.330Z,86.19
2017-05-24T05:43:48.374Z,86
2017-05-24T05:44:48.198Z,85.9
2017-05-24T05:45:48.232Z,85.62
2017-05-24T05:46:48.265Z,86.38
2017-05-24T05:47:48.299Z,86.1
2017-05-24T05:48:48.334Z,86.47
2017-05-24T05:49:48.374Z,86.29
2017-05-24T05:50:48.400Z,86.29
2017-05-24T05:51:48.434Z,85.71
2017-05-24T05:52:48.468Z,85.24
2017-05-24T05:53:48.497Z,85.9
2017-05-24T05:54:48.533Z,85.81
2017-05-24T05:55:48.569Z,85.62
2017-05-24T05:56:48.598Z,85.14
2017-05-24T05:57:48.831Z,85.24
2017-05-24T05:58:48.672Z,84.95
2017-05-24T05:59:48.700Z,84.85
2017-05-24T06:00:48.733Z,84.95
2017-05-24T06:01:48.764Z,84.85
2017-05-24T06:02:48.792Z,84.85
2017-05-24T06:03:48.833Z,84.95
2017-05-24T06:04:48.871Z,84.76
2017-05-24T06:05:48.883Z,84.95
2017-05-24T06:06:48.932Z,84.85
2017-05-24T06:07:48.954Z,84.76
2017-05-24T06:08:49.606Z,84.95
2017-05-24T06:09:49.031Z,85.33
2017-05-24T06:10:49.075Z,85.24
2017-05-24T06:11:49.291Z,85.14
2017-05-24T06:12:49.132Z,85.33
2017-05-24T06:13:49.179Z,85.14
2017-05-24T06:14:50.877Z,85.24
2017-05-24T06:15:49.235Z,85.33
2017-05-24T06:16:49.465Z,85.9
2017-05-24T06:17:49.282Z,85.62
2017-05-24T06:18:49.340Z,85.33
2017-05-24T06:19:49.368Z,85.42
2017-05-24T06:20:49.384Z,85.33
2017-05-24T06:21:49.434Z,85.33
2017-05-24T06:22:49.486Z,85.52
2017-05-24T06:23:49.510Z,85.24
2017-05-24T06:24:49.544Z,85.81
2017-05-24T06:25:49.562Z,85.29
2017-05-24T06:26:49.605Z,85.1
2017-05-24T06:27:50.435Z,85.58
2017-05-24T06:28:49.678Z,85.24
2017-05-24T06:29:49.708Z,84.95
2017-05-24T06:30:49.743Z,84.66
2017-05-24T06:31:50.177Z,84.76
2017-05-24T06:32:49.809Z,84.56
2017-05-24T06:33:49.839Z,85.62
2017-05-24T06:34:49.877Z,85.33
2017-05-24T06:35:49.889Z,84.76
2017-05-24T06:36:50.011Z,84.32
2017-05-24T06:37:49.978Z,84.23
2017-05-24T06:38:50.012Z,83.65
2017-05-24T06:39:50.037Z,83.99
2017-05-24T06:40:50.076Z,83.7
2017-05-24T06:41:50.112Z,84.28
2017-05-24T06:42:50.144Z,84.85
2017-05-24T06:43:50.179Z,84.47
2017-05-24T06:44:50.214Z,84.76
2017-05-24T06:45:50.224Z,85.05
2017-05-24T06:46:50.283Z,85.81
2017-05-24T06:47:50.306Z,85.71
2017-05-24T06:48:50.345Z,86.19
2017-05-24T06:49:50.382Z,85.62
2017-05-24T06:50:50.397Z,85.62
2017-05-24T06:51:50.446Z,85.52
2017-05-24T06:52:50.521Z,86
2017-05-24T06:53:50.498Z,85.24
2017-05-24T06:54:50.549Z,85.24
2017-05-24T06:55:50.589Z,84.85
2017-05-24T06:56:50.594Z,84.56
2017-05-24T06:57:50.650Z,84.95
2017-05-24T06:58:50.684Z,84.56
2017-05-24T06:59:50.698Z,84.66
2017-05-24T07:00:50.733Z,84.66
2017-05-24T07:01:50.785Z,83.99
2017-05-24T07:02:50.816Z,84.38
2017-05-24T07:03:50.847Z,84.03
2017-05-24T07:04:50.882Z,84.03
2017-05-24T07:05:50.899Z,84.23
2017-05-24T07:06:50.933Z,84.42
2017-05-24T07:07:50.968Z,83.56
2017-05-24T07:08:50.981Z,84.03
2017-05-24T07:09:51.034Z,83.56
2017-05-24T07:10:51.094Z,83.75
2017-05-24T07:11:51.117Z,84.03
2017-05-24T07:12:51.153Z,83.65
2017-05-24T07:13:51.170Z,83.17
2017-05-24T07:14:51.227Z,83.27
2017-05-24T07:15:51.322Z,83.46
2017-05-24T07:16:51.292Z,83.08
2017-05-24T07:17:51.325Z,83.27
2017-05-24T07:18:51.352Z,83.17
2017-05-24T07:19:51.394Z,83.17
2017-05-24T07:20:51.426Z,83.27
2017-05-24T07:21:51.458Z,82.98
2017-05-24T07:22:51.493Z,83.08
2017-05-24T07:23:51.527Z,82.89
2017-05-24T07:24:51.553Z,82.98
2017-05-24T07:25:51.593Z,83.08
2017-05-24T07:26:51.627Z,83.08
2017-05-24T07:27:51.666Z,83.08
2017-05-24T07:28:51.688Z,82.98
2017-05-24T07:29:51.733Z,82.98
2017-05-24T07:30:51.749Z,83.22
2017-05-24T07:31:51.800Z,83.12
2017-05-24T07:32:51.830Z,82.74
2017-05-24T07:33:51.842Z,82.54
2017-05-24T07:34:51.910Z,82.64
2017-05-24T07:35:51.933Z,82.26
2017-05-24T07:36:51.970Z,82.26
2017-05-24T07:37:51.996Z,82.17
2017-05-24T07:38:52.037Z,82.45
2017-05-24T07:39:52.067Z,82.26
2017-05-24T07:40:52.112Z,82.83
2017-05-24T07:41:52.122Z,82.7
2017-05-24T07:42:52.177Z,83.37
2017-05-24T07:43:52.207Z,83.37
2017-05-24T07:44:52.246Z,83.08
2017-05-24T07:45:52.274Z,82.98
2017-05-24T07:46:52.309Z,83.94
2017-05-24T07:47:52.347Z,83.75
2017-05-24T07:48:52.378Z,83.27
2017-05-24T07:49:52.413Z,83.84
2017-05-24T07:50:52.440Z,83.75
2017-05-24T07:51:52.475Z,84.99
2017-05-24T07:52:52.512Z,84.7
2017-05-24T07:53:52.549Z,85.47
2017-05-24T07:54:52.584Z,85.71
2017-05-24T07:55:52.616Z,86.57
2017-05-24T07:56:52.646Z,87.15
2017-05-24T07:57:52.675Z,88.1
2017-05-24T07:58:52.722Z,88.39
2017-05-24T07:59:52.734Z,88.39
2017-05-24T08:00:52.787Z,88.1
2017-05-24T08:01:52.821Z,88.2
2017-05-24T08:02:52.853Z,89.01
2017-05-24T08:03:52.888Z,89.06
2017-05-24T08:04:52.931Z,89.01
2017-05-24T08:05:52.955Z,89.11
2017-05-24T08:06:52.989Z,88.63
2017-05-24T08:07:53.017Z,89.01
2017-05-24T08:08:53.061Z,88.82
2017-05-24T08:09:53.090Z,88.54
2017-05-24T08:10:53.128Z,88.58
2017-05-24T08:11:53.158Z,88.2
2017-05-24T08:12:53.189Z,87.62
2017-05-24T08:13:53.229Z,87.53
2017-05-24T08:14:53.260Z,87.53
2017-05-24T08:15:53.293Z,87.62
2017-05-24T08:16:53.328Z,87.43
2017-05-24T08:17:53.360Z,86.57
2017-05-24T08:18:53.395Z,86.19
2017-05-24T08:19:53.429Z,85.75
2017-05-24T08:20:53.449Z,85.09
2017-05-24T08:21:53.500Z,84.32
2017-05-24T08:22:53.523Z,83.98
2017-05-24T08:23:53.549Z,83.31
2017-05-24T08:24:53.598Z,82.68
2017-05-24T08:25:53.608Z,82.2
2017-05-24T08:26:53.670Z,81.73
2017-05-24T08:27:53.702Z,81.44
2017-05-24T08:28:53.731Z,80.87
2017-05-24T08:29:53.775Z,80.38
2017-05-24T08:30:53.801Z,79.85
2017-05-24T08:31:53.844Z,79.57
2017-05-24T08:32:53.865Z,79.66
2017-05-24T08:33:53.893Z,79.28
2017-05-24T08:34:53.943Z,78.51
2017-05-24T08:35:53.969Z,78.7
2017-05-24T08:36:54.212Z,78.51
2017-05-24T08:37:54.049Z,78.03
2017-05-24T08:38:54.061Z,77.97
2017-05-24T08:39:54.088Z,77.88
2017-05-24T08:40:54.150Z,77.69
2017-05-24T08:41:54.179Z,77.5
2017-05-24T08:42:54.210Z,77.11
2017-05-24T08:43:54.255Z,76.82
2017-05-24T08:44:54.268Z,76.54
2017-05-24T08:45:54.320Z,76.67
2017-05-24T08:46:54.357Z,75.9
2017-05-24T08:47:54.392Z,75.23
2017-05-24T08:48:54.426Z,74.6
2017-05-24T08:49:54.466Z,74.06
2017-05-24T08:50:54.494Z,73
2017-05-24T08:51:54.534Z,72.28
2017-05-24T08:52:54.566Z,71.7
2017-05-24T08:53:54.601Z,70.39
2017-05-24T08:54:54.641Z,70.01
2017-05-24T08:55:54.657Z,70.2
2017-05-24T08:56:54.709Z,70.2
2017-05-24T08:57:54.746Z,70.2
2017-05-24T08:58:54.762Z,70.55
2017-05-24T08:59:54.819Z,71.47
2017-05-24T09:00:54.852Z,72.24
2017-05-24T09:01:54.860Z,72.59
2017-05-24T09:02:54.918Z,73.55
2017-05-24T09:03:54.945Z,73.55
2017-05-24T09:04:54.971Z,73.93
2017-05-24T09:05:55.029Z,74.27
2017-05-24T09:06:55.073Z,74.76
2017-05-24T09:07:55.094Z,75.29
2017-05-24T09:08:55.140Z,75.39
2017-05-24T09:09:55.172Z,76.35
2017-05-24T09:10:55.203Z,76.5
2017-05-24T09:11:55.239Z,76.6
2017-05-24T09:12:55.272Z,76.98
2017-05-24T09:13:55.313Z,77.08
2017-05-24T09:14:55.345Z,76.6
2017-05-24T09:15:55.376Z,76.69
2017-05-24T09:16:55.416Z,76.64
2017-05-24T09:17:55.447Z,75.87
2017-05-24T09:18:55.467Z,75.96
2017-05-24T09:19:55.523Z,76.31
2017-05-24T09:20:55.532Z,76.44
2017-05-24T09:21:55.650Z,76.54
2017-05-24T09:22:55.622Z,76.54
2017-05-24T09:23:55.668Z,76.6
2017-05-24T09:24:55.685Z,76.5
2017-05-24T09:25:55.728Z,76.69
2017-05-24T09:26:55.741Z,77.26
2017-05-24T09:27:55.786Z,77.94
2017-05-24T09:28:55.838Z,78.13
2017-05-24T09:29:55.873Z,78.28
2017-05-24T09:30:55.905Z,78.76
2017-05-24T09:31:55.913Z,78.28
2017-05-24T09:32:55.978Z,78.47
2017-05-24T09:33:56.005Z,78.57
2017-05-24T09:34:56.033Z,78.19
2017-05-24T09:35:56.075Z,77.51
2017-05-24T09:36:56.109Z,77.08
2017-05-24T09:37:56.145Z,76.5
2017-05-24T09:38:56.190Z,76.25
2017-05-24T09:39:56.223Z,75.58
2017-05-24T09:40:56.250Z,75.62
2017-05-24T09:41:56.254Z,75.43
2017-05-24T09:42:56.326Z,74.66
2017-05-24T09:43:56.357Z,74.76
2017-05-24T09:44:56.376Z,74.47
2017-05-24T09:45:56.424Z,74.41
2017-05-24T09:46:56.467Z,74.6
2017-05-24T09:47:56.494Z,74.85
2017-05-24T09:48:56.538Z,74.76
2017-05-24T09:49:56.567Z,75.81
2017-05-24T09:50:56.591Z,75.96
2017-05-24T09:51:56.638Z,76.06
2017-05-24T09:52:56.677Z,76.35
2017-05-24T09:53:56.708Z,76.35
2017-05-24T09:54:56.732Z,76.54
2017-05-24T09:55:56.780Z,76.25
2017-05-24T09:56:56.813Z,76.06
2017-05-24T09:57:56.852Z,76.44
2017-05-24T09:58:56.886Z,76.73
2017-05-24T09:59:56.920Z,76.54
2017-05-24T10:00:56.954Z,76.25
2017-05-24T10:01:56.990Z,76.15
2017-05-24T10:02:57.024Z,76.44
2017-05-24T10:03:57.062Z,75.48
2017-05-24T10:04:57.090Z,75.48
2017-05-24T10:05:57.127Z,75.33
2017-05-24T10:06:57.161Z,75.04
2017-05-24T10:07:57.183Z,74.69
2017-05-24T10:08:57.239Z,74.69
2017-05-24T10:09:57.271Z,74.22
2017-05-24T10:10:57.309Z,73.77
2017-05-24T10:11:57.330Z,73.68
2017-05-24T10:12:57.384Z,72.72
2017-05-24T10:13:57.417Z,72.56
2017-05-24T10:14:57.450Z,72.18
2017-05-24T10:15:57.527Z,71.22
2017-05-24T10:16:57.518Z,71.16
2017-05-24T10:17:57.541Z,70.58
2017-05-24T10:18:57.593Z,70.58
2017-05-24T10:19:57.629Z,70.87
2017-05-24T10:20:57.647Z,70.49
2017-05-24T10:21:57.675Z,71.35
2017-05-24T10:22:57.733Z,71.35
2017-05-24T10:23:57.779Z,71.35
2017-05-24T10:24:57.828Z,71.25
2017-05-24T10:25:57.836Z,71.16
2017-05-24T10:26:57.884Z,71.25
2017-05-24T10:27:57.917Z,71.16
2017-05-24T10:28:57.951Z,70.78
2017-05-24T10:29:57.986Z,70.23
2017-05-24T10:30:58.016Z,70.04
2017-05-24T10:31:58.060Z,69.31
2017-05-24T10:32:58.075Z,68.73
2017-05-24T10:33:58.134Z,69.31
2017-05-24T10:34:58.170Z,69.21
2017-05-24T10:35:58.200Z,69.37
2017-05-24T10:36:58.234Z,70.2
2017-05-24T10:37:58.344Z,70.29
2017-05-24T10:38:58.312Z,71.16
2017-05-24T10:39:58.345Z,71.16
2017-05-24T10:40:58.391Z,71.7
2017-05-24T10:41:58.422Z,71.41
2017-05-24T10:42:58.462Z,71.7
2017-05-24T10:43:58.490Z,71.7
2017-05-24T10:44:58.529Z,71.22
2017-05-24T10:45:58.572Z,70.58
2017-05-24T10:46:58.587Z,69.56
2017-05-24T10:47:58.685Z,66.94
2017-05-24T10:48:58.680Z,64.89
2017-05-24T10:49:58.766Z,63.21
2017-05-24T10:50:58.745Z,62.63
2017-05-24T10:51:58.787Z,61.83
2017-05-24T10:52:58.825Z,61.28
2017-05-24T10:53:58.841Z,60.35
2017-05-24T10:54:58.893Z,59.31
2017-05-24T10:55:58.929Z,59.31
2017-05-24T10:56:58.978Z,58.93
2017-05-24T10:57:59.009Z,59.19
2017-05-24T10:58:59.043Z,59.38
2017-05-24T10:59:59.085Z,59.16
2017-05-24T11:00:59.125Z,60.31
2017-05-24T11:01:59.161Z,60.28
2017-05-24T11:02:59.202Z,60.48
2017-05-24T11:03:59.232Z,61.32
2017-05-24T11:04:59.277Z,62.15
2017-05-24T11:05:59.310Z,62.8
2017-05-24T11:06:59.341Z,63.67
2017-05-24T11:07:59.368Z,63.54
2017-05-24T11:08:59.417Z,64.02
2017-05-24T11:09:59.455Z,63.82
2017-05-24T11:10:59.468Z,63.44
2017-05-24T11:11:59.531Z,63.15
2017-05-24T11:12:59.581Z,63.25
2017-05-24T11:13:59.609Z,63.15
2017-05-24T11:14:59.652Z,62.9
2017-05-24T11:15:59.684Z,62.32
2017-05-24T11:16:59.727Z,61.68
2017-05-24T11:17:59.749Z,61.96
2017-05-24T11:18:59.787Z,62.12
2017-05-24T11:19:59.833Z,62.87
2017-05-24T11:20:59.880Z,63.51
2017-05-24T11:21:59.910Z,64.34
2017-05-24T11:22:59.905Z,64.53
2017-05-24T11:23:59.971Z,64.63
2017-05-24T11:25:00.023Z,64.98
2017-05-24T11:26:00.045Z,65.5
2017-05-24T11:27:00.157Z,65.46
2017-05-24T11:28:00.150Z,65.3
2017-05-24T11:29:00.175Z,64.53
2017-05-24T11:30:00.224Z,64.15
2017-05-24T11:31:00.260Z,64.53
2017-05-24T11:32:00.287Z,64.53
2017-05-24T11:33:00.323Z,64.34
2017-05-24T11:34:00.333Z,63.99
2017-05-24T11:35:00.380Z,63.79
2017-05-24T11:36:00.430Z,62.57
2017-05-24T11:37:00.463Z,61.55
2017-05-24T11:38:00.505Z,61.19
2017-05-24T11:39:00.541Z,60.13
2017-05-24T11:40:00.589Z,60.19
2017-05-24T11:41:00.611Z,58.94
2017-05-24T11:42:00.655Z,58
2017-05-24T11:43:00.692Z,57.42
2017-05-24T11:44:00.732Z,57.04
2017-05-24T11:45:00.774Z,57.06
2017-05-24T11:46:00.809Z,56.77
2017-05-24T11:47:00.844Z,57.26
2017-05-24T11:48:00.888Z,57.06
2017-05-24T11:49:00.920Z,57.38
2017-05-24T11:50:00.937Z,57.29
2017-05-24T11:51:00.989Z,56.96
2017-05-24T11:52:01.032Z,56.58
2017-05-24T11:53:01.084Z,57.16
2017-05-24T11:54:01.112Z,57.52
2017-05-24T11:55:01.152Z,57.14
2017-05-24T11:56:01.189Z,56.62
2017-05-24T11:57:01.231Z,56.91
2017-05-24T11:58:01.264Z,57.1
2017-05-24T11:59:01.287Z,57.01
2017-05-24T12:00:01.327Z,57.01
2017-05-24T12:01:01.390Z,57.2
2017-05-24T12:02:01.419Z,57.62
2017-05-24T12:03:01.454Z,56.94
2017-05-24T12:04:01.487Z,56.56
2017-05-24T12:05:01.511Z,56.56
2017-05-24T12:06:01.573Z,56.1
2017-05-24T12:07:01.605Z,56.68
2017-05-24T12:08:01.644Z,56.29
2017-05-24T12:09:01.685Z,56.2
2017-05-24T12:10:01.727Z,56.2
2017-05-24T12:11:01.760Z,56.68
2017-05-24T12:12:01.790Z,56.58
2017-05-24T12:13:01.843Z,56.77
2017-05-24T12:14:01.878Z,56.29
2017-05-24T12:15:01.894Z,55.52
2017-05-24T12:16:01.951Z,55.62
2017-05-24T12:17:01.992Z,55.98
2017-05-24T12:18:02.035Z,56.14
2017-05-24T12:19:02.065Z,56.52
2017-05-24T12:20:02.102Z,56.24
2017-05-24T12:21:02.124Z,56.79
2017-05-24T12:22:02.188Z,57.17
2017-05-24T12:23:02.216Z,58.11
2017-05-24T12:24:02.263Z,57.92
2017-05-24T12:25:02.299Z,57.82
2017-05-24T12:26:02.337Z,57.4
2017-05-24T12:27:02.368Z,57.12
2017-05-24T12:28:02.394Z,57.18
2017-05-24T12:29:02.448Z,57.09
2017-05-24T12:30:02.491Z,56.8
2017-05-24T12:31:02.520Z,56.54
2017-05-24T12:32:02.566Z,56.35
2017-05-24T12:33:02.601Z,56.54
2017-05-24T12:34:02.633Z,56.25
2017-05-24T12:35:02.676Z,56.44
2017-05-24T12:36:02.681Z,55.19
2017-05-24T12:37:02.750Z,55.29
2017-05-24T12:38:02.798Z,56.32
2017-05-24T12:39:02.806Z,56.41
2017-05-24T12:40:02.902Z,56.22
2017-05-24T12:41:02.921Z,56.03
2017-05-24T12:42:02.939Z,56.32
2017-05-24T12:43:02.990Z,56.41
2017-05-24T12:44:02.997Z,56.15
2017-05-24T12:45:03.048Z,55.67
2017-05-24T12:46:03.092Z,55.67
2017-05-24T12:47:03.126Z,55.48
2017-05-24T12:48:03.167Z,55.48
2017-05-24T12:49:03.198Z,55.7
2017-05-24T12:50:03.241Z,55.99
2017-05-24T12:51:03.275Z,56.27
2017-05-24T12:52:03.292Z,56.25
2017-05-24T12:53:03.356Z,55.67
2017-05-24T12:54:03.385Z,55.67
2017-05-24T12:55:03.614Z,55.35
2017-05-24T12:56:03.466Z,55.83